< < Back
Terminal Aerodrome Forecast


Current Version              Previous Versions:   1  2  3  4  5  6  7  8  9  

Terminal Aerodrome Forecast

680
FTUS42 KFFC 301549 AAB
TAFFTY
TAF AMD
KFTY 301549Z 3016/3112 35005KT P6SM FEW040
     FM301700 34007KT P6SM VCSH BKN040
      TEMPO 3018/3021 VRB10G20KT 6SM -TSRA BKN040CB
     FM310000 34004KT P6SM SCT060 SCT250=

Latest METAR

330
SAUS70 KWBC 301800 RRG
MTRFTY
METAR KFTY 301753Z 00000KT 10SM FEW055 34/22 A2999 RMK AO2 SLP142
T03390217 10344 20256 58005


USA.gov is the U.S. government's official web portal to all federal, state and local government web resources and services.